Other Surface Observations
Issued by NWS Great Falls, MT

Home | Current Version | Previous Version | Text Only | Print | Product List | Glossary On
Versions: 1 2 3 4 5 6 7 8 9 10 11 12 13 14 15 16 17 18 19 20 21 22 23 24 25 26 27 28 29 30 31 32 33 34 35 36 37 38 39 40 41 42 43 44 45 46 47 48 49 50
000
SXUS55 KTFX 271002
OSOTFX

AREA AWOS OBSERVATIONS
NATIONAL WEATHER SERVICE GREAT FALLS MT
0308 AM MDT Thu Apr 27 2017

METAR K6S8 270855Z AUTO 25000KT 40SM 04/01 A2961 RMK A01 T00440005
METAR K7S0 270755Z AUTO 11006KT 15SM 04/02 A2976 RMK A01 T00380022
METAR K7S1 270855Z AUTO 35006KT 40SM 04/M02 A2967 RMK A01 T00441022
METAR K7S1 270755Z AUTO 31012KT 25SM 03/M01 A2967 RMK A01 T00331011
METAR K97M 270855Z AUTO 11009KT 40SM M01/M05 A2964 RMK A01 T10111050
METAR K97M 270755Z AUTO 11004KT 40SM M01/M05 A2966 RMK A01 T10111050
METAR K9S2 270855Z AUTO 10011KT 40SM M02/M09 A2971 RMK A01 T10161088
METAR K9S5 270855Z AUTO 05000KT 25SM 03/M53 A2966 RMK A01 T00271533
METAR KRPX 270855Z AUTO 27000KT 40SM 06/02 A2953 RMK A01 T00550022
METAR KS34 270855Z AUTO 19000KT 40SM 06/02 A2973 RMK A01 T00550016
METAR KS34 270755Z AUTO 32000KT 25SM 06/02 A2973 RMK A01 T00550022
METAR KTHM 270755Z AUTO 26000KT 40SM 05/03 A2978 RMK A01 T00500033



USA.gov is the U.S. government's official web portal to all federal, state and local government web resources and services.